Surface Data

82 °F / 27.8 °C
NE at 10 MPH
83%
77°F / 25.0 °C
29.83" (1010 mb)
10 mile(s)
mostly clear
2024.05.22 0820 UTC

Surface Data

Raw METARs

2024/05/22 08:20
PKWA 220820Z COR 05009KT 10SM FEW015 28/25 A2983 RMK AO2 TSNO

Translated METAR

Kwajalein, Bucholz AAF, Kwajalein KMR ATOL Airport, Marshall Islands (PKWA) 08-43N 167-44E 2M
May 22, 2024 - 04:20 AM EDT / 2024.05.22 0820 UTC
Wind: from the NE (050 degrees) at 10 MPH (9 KT):0
Visibility: 10 mile(s):0
Sky conditions: mostly clear
Temperature: 82 F (28 C)
Dew Point: 77 F (25 C)
Relative Humidity: 83%
Pressure (altimeter): 29.83 in. Hg (1010 hPa)
ob: PKWA 220820Z COR 05009KT 10SM FEW015 28/25 A2983 RMK AO2 TSNO
cycle: 8